createdAt,value
2022-09-05T00:01:08.437Z,101906.72
2022-09-05T00:04:46.138Z,101898.53
2022-09-05T00:08:05.731Z,101893.69
2022-09-05T00:11:41.892Z,101895.19
2022-09-05T00:15:20.899Z,101891.63
2022-09-05T00:22:54.216Z,101894.13
2022-09-05T00:24:35.901Z,101899.59
2022-09-05T00:25:55.464Z,101902.56
2022-09-05T00:29:00.623Z,101898.53
2022-09-05T00:32:40.656Z,101906.50
2022-09-05T00:35:50.579Z,101892.84
2022-09-05T00:38:59.145Z,101882.91
2022-09-05T00:42:09.313Z,101888.19
2022-09-05T00:45:31.080Z,101890.53
2022-09-05T00:48:54.686Z,101893.91
2022-09-05T00:52:13.606Z,101880.00
2022-09-05T00:55:27.831Z,101886.56
2022-09-05T00:58:54.624Z,101887.56
2022-09-05T01:02:05.010Z,101897.69
2022-09-05T01:05:35.312Z,101899.38
2022-09-05T01:08:46.930Z,101891.38
2022-09-05T01:12:18.666Z,101882.28
2022-09-05T01:15:30.068Z,101885.25
2022-09-05T01:18:58.083Z,101886.69
2022-09-05T01:22:39.456Z,101898.97
2022-09-05T01:25:55.269Z,101905.25
2022-09-05T01:29:16.984Z,101884.78
2022-09-05T01:32:37.791Z,101908.16
2022-09-05T01:36:17.232Z,101908.81
2022-09-05T01:40:04.409Z,101911.97
2022-09-05T01:43:00.726Z,101915.56
2022-09-05T01:46:24.783Z,101915.56
2022-09-05T01:49:34.344Z,101915.78
2022-09-05T01:52:57.250Z,101910.31
2022-09-05T01:56:18.648Z,101910.31
2022-09-05T01:59:37.625Z,101911.31
2022-09-05T02:03:21.426Z,101912.38
2022-09-05T02:06:44.017Z,101904.41
2022-09-05T02:09:52.049Z,101907.13
2022-09-05T02:13:15.756Z,101909.03
2022-09-05T02:16:41.099Z,101913.00
2022-09-05T02:20:02.199Z,101912.16
2022-09-05T02:23:44.127Z,101906.69
2022-09-05T02:26:55.389Z,101903.97
2022-09-05T02:30:21.733Z,101904.59
2022-09-05T02:33:35.814Z,101907.53
2022-09-05T02:36:45.832Z,101898.22
2022-09-05T02:44:43.040Z,101906.38
2022-09-05T02:45:17.651Z,101905.94
2022-09-05T02:47:08.003Z,101892.41
2022-09-05T02:54:54.169Z,101900.88
2022-09-05T02:57:40.618Z,101905.28
2022-09-05T02:58:07.147Z,101905.25
2022-09-05T03:01:17.929Z,101900.78
2022-09-05T03:04:37.830Z,101915.75
2022-09-05T03:08:12.145Z,101911.97
2022-09-05T03:11:45.839Z,101890.31
2022-09-05T03:15:22.306Z,101911.81
2022-09-05T03:18:27.912Z,101907.81
2022-09-05T03:22:03.884Z,101917.50
2022-09-05T03:25:41.109Z,101920.91
2022-09-05T03:28:58.401Z,101918.41
2022-09-05T03:32:25.163Z,101922.81
2022-09-05T03:35:32.915Z,101925.53
2022-09-05T03:38:37.714Z,101921.97
2022-09-05T03:42:14.671Z,101923.69
2022-09-05T03:45:37.304Z,101919.84
2022-09-05T03:48:39.786Z,101927.38
2022-09-05T03:57:13.844Z,101910.31
2022-09-05T03:57:27.025Z,101925.31
2022-09-05T03:59:25.363Z,101923.63
2022-09-05T04:08:11.227Z,101930.34
2022-09-05T04:08:27.924Z,101933.91
2022-09-05T04:09:50.102Z,101924.88
2022-09-05T04:13:03.590Z,101939.22
2022-09-05T04:16:18.110Z,101934.31
2022-09-05T04:19:24.772Z,101942.34
2022-09-05T04:22:54.532Z,101950.50
2022-09-05T04:26:27.583Z,101955.34
2022-09-05T04:29:51.101Z,101957.28
2022-09-05T04:33:16.314Z,101964.69
2022-09-05T04:36:28.399Z,101963.81
2022-09-05T04:39:32.289Z,101968.47
2022-09-05T04:42:39.052Z,101958.97
2022-09-05T04:45:49.652Z,101972.69
2022-09-05T04:48:56.446Z,101970.81
2022-09-05T04:52:31.566Z,101978.34
2022-09-05T04:55:46.817Z,101948.50
2022-09-05T05:01:36.562Z,101978.19
2022-09-05T05:06:08.550Z,101980.00
2022-09-05T05:06:30.062Z,101968.53
2022-09-05T05:09:32.214Z,101988.03
2022-09-05T05:17:57.032Z,101987.38
2022-09-05T05:18:15.154Z,101971.22
2022-09-05T05:20:39.934Z,101994.34
2022-09-05T05:23:45.923Z,101998.59
2022-09-05T05:27:11.022Z,102000.75
2022-09-05T05:30:25.757Z,101995.75
2022-09-05T05:33:34.579Z,101996.81
2022-09-05T05:36:47.038Z,102000.59
2022-09-05T05:40:11.332Z,102005.63
2022-09-05T05:43:34.287Z,102002.84
2022-09-05T05:46:39.850Z,102008.75
2022-09-05T05:53:28.896Z,102008.53
2022-09-05T05:57:10.150Z,102012.16
2022-09-05T06:00:32.614Z,102014.91
2022-09-05T06:04:08.285Z,102011.81
2022-09-05T06:08:02.516Z,102013.09
2022-09-05T06:14:48.918Z,102018.84
2022-09-05T06:15:40.842Z,102022.19
2022-09-05T06:19:13.243Z,102033.59
2022-09-05T06:22:45.884Z,102026.84
2022-09-05T06:25:57.003Z,102041.63
2022-09-05T06:29:17.877Z,102041.75
2022-09-05T06:32:53.912Z,102043.84
2022-09-05T06:36:15.381Z,102039.44
2022-09-05T06:39:35.857Z,102048.28
2022-09-05T06:43:27.562Z,102049.28
2022-09-05T06:46:55.444Z,102049.47
2022-09-05T06:50:23.896Z,102054.94
2022-09-05T06:53:52.132Z,102055.59
2022-09-05T06:57:03.627Z,102049.50
2022-09-05T07:00:23.204Z,102048.16
2022-09-05T07:03:43.746Z,102056.81
2022-09-05T07:07:02.209Z,102056.88
2022-09-05T07:13:55.110Z,102062.59
2022-09-05T07:17:02.504Z,102065.19
2022-09-05T07:20:22.189Z,102059.75
2022-09-05T07:24:06.518Z,102061.84
2022-09-05T07:27:09.144Z,102048.31
2022-09-05T07:30:14.247Z,102057.53
2022-09-05T07:33:25.054Z,102051.63
2022-09-05T07:36:37.711Z,102053.25
2022-09-05T07:39:43.977Z,102046.03
2022-09-05T07:43:10.534Z,102053.63
2022-09-05T07:46:32.839Z,102052.47
2022-09-05T07:49:42.277Z,102051.22
2022-09-05T07:56:59.940Z,102049.94
2022-09-05T07:57:02.241Z,102032.81
2022-09-05T08:00:26.070Z,102045.47
2022-09-05T08:03:31.357Z,102041.13
2022-09-05T08:07:20.185Z,102044.25
2022-09-05T08:10:08.253Z,102016.41
2022-09-05T08:13:34.184Z,102036.03
2022-09-05T08:16:39.442Z,102032.47
2022-09-05T08:19:57.823Z,102044.25
2022-09-05T08:23:38.103Z,102039.63
2022-09-05T08:26:49.640Z,102041.72
2022-09-05T08:30:26.824Z,102034.81
2022-09-05T08:33:36.288Z,102000.25
2022-09-05T08:36:47.796Z,102023.09
2022-09-05T08:40:07.227Z,102022.03
2022-09-05T08:46:39.415Z,102015.25
2022-09-05T08:47:20.181Z,102015.09
2022-09-05T08:50:34.785Z,102009.63
2022-09-05T08:53:49.051Z,102009.22
2022-09-05T08:57:19.101Z,102001.41
2022-09-05T09:00:24.811Z,102003.34
2022-09-05T09:03:38.844Z,102005.88
2022-09-05T09:07:27.817Z,101998.94
2022-09-05T09:10:48.180Z,102003.13
2022-09-05T09:13:52.549Z,102001.47
2022-09-05T09:16:57.464Z,101996.22
2022-09-05T09:20:10.110Z,101999.00
2022-09-05T09:23:32.462Z,101991.19
2022-09-05T09:26:50.446Z,101997.31
2022-09-05T09:29:59.625Z,101997.09
2022-09-05T09:33:07.770Z,101994.16
2022-09-05T09:36:34.824Z,101992.91
2022-09-05T09:40:01.881Z,101989.13
2022-09-05T09:43:19.274Z,101982.03
2022-09-05T09:46:41.548Z,101988.75
2022-09-05T09:50:01.612Z,101978.22
2022-09-05T09:53:21.929Z,101969.81
2022-09-05T09:56:56.711Z,101962.44
2022-09-05T10:00:07.692Z,101973.22
2022-09-05T10:06:30.228Z,101964.09
2022-09-05T10:11:00.718Z,101975.03
2022-09-05T10:11:52.072Z,101969.53
2022-09-05T10:14:49.784Z,101967.25
2022-09-05T10:18:05.151Z,101959.53
2022-09-05T10:21:31.559Z,101955.09
2022-09-05T10:24:44.365Z,101955.56
2022-09-05T10:28:00.714Z,101944.19
2022-09-05T10:33:48.409Z,101945.03
2022-09-05T10:35:14.235Z,101949.84
2022-09-05T10:38:44.815Z,101942.88
2022-09-05T10:41:52.293Z,101953.41
2022-09-05T10:44:56.414Z,101946.69
2022-09-05T10:48:13.290Z,101949.59
2022-09-05T10:51:27.054Z,101940.38
2022-09-05T10:55:14.778Z,101945.41
2022-09-05T10:58:35.258Z,101939.72
2022-09-05T11:02:28.783Z,101939.94
2022-09-05T11:05:38.184Z,101927.56
2022-09-05T11:08:53.917Z,101938.31
2022-09-05T11:12:22.652Z,101941.03
2022-09-05T11:15:34.050Z,101936.41
2022-09-05T11:18:55.888Z,101925.44
2022-09-05T11:22:22.656Z,101926.94
2022-09-05T11:25:40.433Z,101910.28
2022-09-05T11:29:08.453Z,101913.47
2022-09-05T11:36:16.221Z,101908.66
2022-09-05T11:39:56.069Z,101908.84
2022-09-05T11:40:09.608Z,101909.28
2022-09-05T11:43:30.561Z,101906.75
2022-09-05T11:46:58.294Z,101898.72
2022-09-05T11:51:02.407Z,101900.38
2022-09-05T11:54:23.390Z,101898.72
2022-09-05T11:57:34.441Z,101890.28
2022-09-05T12:01:43.337Z,101891.13
2022-09-05T12:04:43.841Z,101886.31
2022-09-05T12:08:43.352Z,101890.09
2022-09-05T12:12:19.359Z,101897.03
2022-09-05T12:15:35.055Z,101883.13
2022-09-05T12:19:22.931Z,101885.03
2022-09-05T12:22:29.841Z,101877.47
2022-09-05T12:27:43.857Z,101884.44
2022-09-05T12:29:34.931Z,101885.69
2022-09-05T12:36:05.625Z,101871.78
2022-09-05T12:40:53.660Z,101874.50
2022-09-05T12:41:36.333Z,101834.47
2022-09-05T12:44:41.192Z,101872.63
2022-09-05T12:47:30.313Z,101863.13
2022-09-05T12:50:34.929Z,101852.78
2022-09-05T12:54:00.790Z,101848.81
2022-09-05T13:00:27.635Z,101857.03
2022-09-05T13:03:12.525Z,101843.56
2022-09-05T13:04:51.288Z,101839.97
2022-09-05T13:08:04.474Z,101819.13
2022-09-05T13:14:47.604Z,101838.69
2022-09-05T13:15:14.160Z,101838.28
2022-09-05T13:18:22.445Z,101835.53
2022-09-05T13:21:27.312Z,101832.59
2022-09-05T13:24:38.738Z,101843.56
2022-09-05T13:27:56.779Z,101838.28
2022-09-05T13:35:35.125Z,101839.56
2022-09-05T13:38:02.437Z,101840.59
2022-09-05T13:38:37.298Z,101842.28
2022-09-05T13:41:45.202Z,101829.03
2022-09-05T13:44:58.999Z,101827.72
2022-09-05T13:49:24.121Z,101826.47
2022-09-05T13:52:08.077Z,101831.94
2022-09-05T13:55:15.934Z,101829.63
2022-09-05T13:58:56.434Z,101806.25
2022-09-05T14:03:30.016Z,101825.63
2022-09-05T14:06:44.999Z,101828.59
2022-09-05T14:09:40.043Z,101822.06
2022-09-05T14:12:50.779Z,101822.47
2022-09-05T14:16:06.181Z,101829.22
2022-09-05T14:19:33.413Z,101823.97
2022-09-05T14:22:58.282Z,101825.63
2022-09-05T14:26:04.491Z,101830.69
2022-09-05T14:29:14.724Z,101808.97
2022-09-05T14:37:42.763Z,101828.38
2022-09-05T14:37:49.416Z,101830.06
2022-09-05T14:39:50.353Z,101817.19
2022-09-05T14:43:27.137Z,101810.03
2022-09-05T14:46:49.813Z,101806.69
2022-09-05T14:50:29.478Z,101825.63
2022-09-05T15:00:17.307Z,101817.22
2022-09-05T15:02:48.047Z,101827.75
2022-09-05T15:07:26.799Z,101809.41
2022-09-05T15:12:16.059Z,101817.00
2022-09-05T15:14:03.954Z,101805.63
2022-09-05T15:17:06.420Z,101818.28
2022-09-05T15:20:09.828Z,101818.69
2022-09-05T15:23:34.806Z,101819.53
2022-09-05T15:26:53.252Z,101812.56
2022-09-05T15:29:57.628Z,101816.59
2022-09-05T15:33:26.284Z,101809.41
2022-09-05T15:36:32.729Z,101810.69
2022-09-05T15:39:34.987Z,101796.34
2022-09-05T15:43:08.340Z,101803.91
2022-09-05T15:46:10.748Z,101803.31
2022-09-05T15:49:27.274Z,101804.13
2022-09-05T15:52:56.139Z,101811.28
2022-09-05T15:56:20.888Z,101810.84
2022-09-05T15:59:34.563Z,101815.50
2022-09-05T16:02:46.593Z,101806.44
2022-09-05T16:10:28.639Z,101816.75
2022-09-05T16:10:47.280Z,101821.59
2022-09-05T16:12:59.677Z,101819.28
2022-09-05T16:21:24.933Z,101807.66
2022-09-05T16:23:24.621Z,101822.66
2022-09-05T16:23:44.913Z,101816.13
2022-09-05T16:26:49.335Z,101816.53
2022-09-05T16:29:51.924Z,101821.31
2022-09-05T16:33:08.378Z,101823.50
2022-09-05T16:36:16.094Z,101819.91
2022-09-05T16:39:24.121Z,101825.41
2022-09-05T16:42:51.419Z,101823.22
2022-09-05T16:46:22.845Z,101808.69
2022-09-05T16:49:42.083Z,101824.28
2022-09-05T16:52:53.926Z,101835.22
2022-09-05T16:56:41.054Z,101834.59
2022-09-05T16:59:45.367Z,101837.31
2022-09-05T17:03:28.571Z,101840.06
2022-09-05T17:06:56.905Z,101830.16
2022-09-05T17:10:29.186Z,101837.31
2022-09-05T17:13:45.631Z,101850.78
2022-09-05T17:16:55.572Z,101862.56
2022-09-05T17:20:07.277Z,101858.56
2022-09-05T17:28:58.379Z,101853.72
2022-09-05T17:29:26.945Z,101853.94
2022-09-05T17:33:44.631Z,101875.84
2022-09-05T17:36:53.545Z,101888.47
2022-09-05T17:40:43.106Z,101884.06
2022-09-05T17:43:57.398Z,101894.16
2022-09-05T17:47:36.346Z,101899.81
2022-09-05T17:50:51.378Z,101900.69
2022-09-05T17:53:59.738Z,101900.88
2022-09-05T17:57:27.957Z,101909.09
2022-09-05T18:00:48.957Z,101912.03
2022-09-05T18:03:51.488Z,101912.22
2022-09-05T18:07:00.418Z,101909.06
2022-09-05T18:14:02.009Z,101911.75
2022-09-05T18:17:47.753Z,101908.59
2022-09-05T18:21:21.667Z,101897.22
2022-09-05T18:24:36.525Z,101910.88
2022-09-05T18:28:04.622Z,101909.63
2022-09-05T18:31:41.254Z,101907.53
2022-09-05T18:34:46.043Z,101911.09
2022-09-05T18:37:48.495Z,101919.53
2022-09-05T18:41:21.801Z,101925.19
2022-09-05T18:44:28.508Z,101917.63
2022-09-05T18:47:50.942Z,101927.06
2022-09-05T18:51:13.018Z,101921.16
2022-09-05T18:54:22.015Z,101923.88
2022-09-05T18:57:33.059Z,101889.06
2022-09-05T19:00:46.753Z,101913.38
2022-09-05T19:03:52.472Z,101907.91
2022-09-05T19:06:56.972Z,101902.78
2022-09-05T19:10:34.702Z,101923.41
2022-09-05T19:13:39.924Z,101906.53
2022-09-05T19:16:48.128Z,101904.25
2022-09-05T19:20:31.703Z,101911.84
2022-09-05T19:23:51.642Z,101914.16
2022-09-05T19:27:35.828Z,101910.38
2022-09-05T19:36:58.158Z,101899.59
2022-09-05T19:37:05.920Z,101907.00
2022-09-05T19:37:27.424Z,101905.97
2022-09-05T19:47:25.669Z,101907.00
2022-09-05T19:47:55.653Z,101906.63
2022-09-05T19:51:17.183Z,101895.56
2022-09-05T19:54:27.681Z,101916.81
2022-09-05T19:57:30.634Z,101904.81
2022-09-05T20:00:33.161Z,101895.78
2022-09-05T20:03:41.456Z,101887.75
2022-09-05T20:06:43.718Z,101880.16
2022-09-05T20:09:48.270Z,101890.91
2022-09-05T20:12:50.545Z,101892.63
2022-09-05T20:15:54.972Z,101881.88
2022-09-05T20:18:57.306Z,101895.84
2022-09-05T20:22:11.520Z,101857.72
2022-09-05T20:25:36.700Z,101885.53
2022-09-05T20:28:41.119Z,101875.22
2022-09-05T20:31:45.267Z,101868.06
2022-09-05T20:37:12.873Z,101869.97
2022-09-05T20:43:19.534Z,101875.44
2022-09-05T20:43:31.194Z,101849.19
2022-09-05T20:45:08.435Z,101869.88
2022-09-05T20:54:13.918Z,101860.88
2022-09-05T20:54:15.237Z,101868.25
2022-09-05T20:55:38.844Z,101865.53
2022-09-05T20:58:40.942Z,101858.34
2022-09-05T21:01:58.478Z,101875.63
2022-09-05T21:05:06.730Z,101866.78
2022-09-05T21:08:33.192Z,101862.47
2022-09-05T21:11:35.387Z,101874.56
2022-09-05T21:14:37.511Z,101874.75
2022-09-05T21:17:39.694Z,101867.78
2022-09-05T21:20:52.673Z,101882.97
2022-09-05T21:24:17.498Z,101886.94
2022-09-05T21:27:25.014Z,101879.16
2022-09-05T21:30:34.695Z,101882.44
2022-09-05T21:33:45.539Z,101873.09
2022-09-05T21:36:49.904Z,101880.06
2022-09-05T21:40:00.538Z,101876.97
2022-09-05T21:47:33.978Z,101874.44
2022-09-05T21:47:48.686Z,101882.31
2022-09-05T21:49:49.520Z,101875.34
2022-09-05T21:53:25.322Z,101879.38
2022-09-05T21:59:30.398Z,101886.06
2022-09-05T21:59:55.666Z,101888.22
2022-09-05T22:02:58.365Z,101890.09
2022-09-05T22:06:03.939Z,101871.56
2022-09-05T22:09:13.771Z,101878.31
2022-09-05T22:12:29.906Z,101887.56
2022-09-05T22:15:32.685Z,101887.34
2022-09-05T22:18:40.089Z,101892.81
2022-09-05T22:21:42.315Z,101893.47
2022-09-05T22:24:53.510Z,101888.00
2022-09-05T22:28:26.545Z,101890.75
2022-09-05T22:31:35.868Z,101893.25
2022-09-05T22:34:38.082Z,101891.41
2022-09-05T22:37:40.180Z,101886.50
2022-09-05T22:40:42.463Z,101883.34
2022-09-05T22:43:46.438Z,101891.34
2022-09-05T22:46:48.567Z,101881.66
2022-09-05T22:49:50.772Z,101893.88
2022-09-05T22:52:52.995Z,101898.28
2022-09-05T22:56:03.934Z,101881.00
2022-09-05T22:59:06.534Z,101888.22
2022-09-05T23:02:08.638Z,101884.84
2022-09-05T23:05:10.765Z,101881.88
2022-09-05T23:08:12.973Z,101880.09
2022-09-05T23:11:17.449Z,101881.75
2022-09-05T23:14:19.697Z,101881.75
2022-09-05T23:17:21.785Z,101869.28
2022-09-05T23:20:25.006Z,101872.66
2022-09-05T23:23:27.171Z,101869.94
2022-09-05T23:26:29.182Z,101871.00
2022-09-05T23:29:31.252Z,101865.50
2022-09-05T23:32:33.741Z,101872.56
2022-09-05T23:35:36.816Z,101880.06
2022-09-05T23:38:40.547Z,101872.50
2022-09-05T23:41:42.676Z,101877.28
2022-09-05T23:44:44.766Z,101879.34
2022-09-05T23:47:46.948Z,101863.97
2022-09-05T23:50:49.289Z,101862.53
2022-09-05T23:53:51.355Z,101866.88
2022-09-05T23:56:53.403Z,101870.50
2022-09-05T23:59:55.695Z,101861.88
